TOURFACTS.DK  
Stats and Facts from Tour de France.

Tour de France 2018 starts in 257 days
  Riders   Stages   Teams   Summits   Yearly  


 
Search by year

 2017 - St. 21:  14824 starters.
  5131 different riders.
  634 teams.
  2232 stages.
  454 restdays.
  439589.60 km.
  5653 abandonnees.


Top 3
Christopher Froome86:20:55
Rigoberto Uran86:21:49
Romain Bardet86:23:15
Warren Barguil169 pt.
Primoz Roglic80 pt.
Thomas De Gendt64 pt.
Michael Matthews359 pt.
André Greipel234 pt.
Edvald Boasson Hagen220 pt.
Simon Yates86:27:09
Louis Meintjes86:29:15
Emanuel Buchmann86:54:16
Facts from Tour de France 2009
  |   Stages.  |   Stage winners.  |   Days in yellow  |   Average speed.  |   Route.  |   Teams.  |   All riders.  |   Rookies.  |   Withdrawls.  |  

  |   GC.  |   Polka  |   Green  |   White  |   Summits. (In tour)  |   Summits. (Points)  |   Miscellaneous.  |  

Stage 16 on 21 - 07 - 2009
         Owning:    Alberto Contador    
Pick a stage:  1 2 3 4 5 6 7 8 9 10 11 12 13 14 15 16 17 18 19 20 21
  MartignyBourg-Saint-Maurice | Dist: 159.00 km.
Cat: HCol du Grand Saint BernardITAFranco Pellizotti
20 points
 
Cat: 1Col du Petit Saint BernardITAFranco Pellizotti
30 points
 

Average speed for all riders in stage:  35,453 km./hr.
    Place:Name:Team:Time:Km/h:
ESPMikel AstarlozaESPEuskaltel - Euskadi04:14:20  +  00:00:00=37,510 
FRASandy CasarFRAFrancaise Des Jeux04:14:26  +  00:00:06=37,495 
FRAPierrick FédrigoFRABbox Bouygues Telecom04:14:26  +  00:00:06=37,495 
4 FRANicolas RocheFRAAg2r La Mondiale04:14:26  +  00:00:06=37,495 
5 BELJurgen Van Den BroeckBELSilence-Lotto04:14:26  +  00:00:06=37,495 
6 FRAAmaël MoinardFRACofidis Le Credit En Ligne04:14:26  +  00:00:06=37,495 
7 ITAFranco PellizottiITALiquigas04:14:31  +  00:00:11=37,483 
8 FRAStéphane GoubertFRAAg2r La Mondiale04:14:31  +  00:00:11=37,483 
9 FRAChristophe MoreauFRAAgritubel04:15:19  +  00:00:59=37,365 
10 ESPAlberto ContadorKAZAstana Pro Team04:15:19  +  00:00:59=37,365 
11 ITAVincenzo NibaliITALiquigas04:15:19  +  00:00:59=37,365 
12 USALance ArmstrongKAZAstana Pro Team04:15:19  +  00:00:59=37,365 
13 BELBradley WigginsUSAGarmin-Slipstream04:15:19  +  00:00:59=37,365 
14 GERAndréas KlödenKAZAstana Pro Team04:15:19  +  00:00:59=37,365 
15 COLRigoberto UranESPCaisse d´Epargne04:15:19  +  00:00:59=37,365 
16 USAChristian VandeveldeUSAGarmin-Slipstream04:15:19  +  00:00:59=37,365 
17 FRAChristophe Le MevelFRAFrancaise Des Jeux04:15:19  +  00:00:59=37,365 
18 CZERoman KreuzigerITALiquigas04:15:19  +  00:00:59=37,365 
19 LUXAndy SchleckDNKTeam Saxo Bank04:15:19  +  00:00:59=37,365 
20 LUXFränk SchleckDNKTeam Saxo Bank04:15:19  +  00:00:59=37,365 
21 LUXKim KirchenUSATeam Columbia-HTC04:15:19  +  00:00:59=37,365 
22 FRALaurent LefèvreFRABbox Bouygues Telecom04:15:19  +  00:00:59=37,365 
23 RUSYury TrofimovFRABbox Bouygues Telecom04:15:19  +  00:00:59=37,365 
24 ESPCarlos SastreCHECervelo Test Team04:15:19  +  00:00:59=37,365 
25 RUSVladimir KarpetsRUSTeam Katusha04:15:19  +  00:00:59=37,365 
26 ESPIgor AntonESPEuskaltel - Euskadi04:15:19  +  00:00:59=37,365 
27 USADavid ZabriskieUSAGarmin-Slipstream04:15:34  +  00:01:14=37,329 
28 NEDLaurens ten DamNLDRabobank04:17:36  +  00:03:16=37,034 
29 ESPJosé Ángel GomezCHECervelo Test Team04:17:36  +  00:03:16=37,034 
30 FRARémi PauriolFRACofidis Le Credit En Ligne04:18:15  +  00:03:55=36,941 
31 GERChristian KneesDEUTeam Milram04:18:15  +  00:03:55=36,941 
32 FRAThomas VoecklerFRABbox Bouygues Telecom04:18:15  +  00:03:55=36,941 
33 FRASébastien MinardFRACofidis Le Credit En Ligne04:18:15  +  00:03:55=36,941 
34 GERLinus GerdemannDEUTeam Milram04:18:15  +  00:03:55=36,941 
35 RUSSerguei IvanovRUSTeam Katusha04:18:15  +  00:03:55=36,941 
36 ESPRuben PerezESPEuskaltel - Euskadi04:18:15  +  00:03:55=36,941 
37 SUIDavid LoosliITALampre-N.G.C04:18:15  +  00:03:55=36,941 
38 ITARinaldo NocentiniFRAAg2r La Mondiale04:18:15  +  00:03:55=36,941 
39 FRAHubert DupontFRAAg2r La Mondiale04:18:15  +  00:03:55=36,941 
40 SLOSimon SpilakITALampre-N.G.C04:18:15  +  00:03:55=36,941 
41 UKRYaroslav PopovychKAZAstana Pro Team04:18:15  +  00:03:55=36,941 
42 FRAPierre RollandFRABbox Bouygues Telecom04:18:15  +  00:03:55=36,941 
43 RUSAlexandre BotcharovRUSTeam Katusha04:18:15  +  00:03:55=36,941 
44 FRAJérémy RoyFRAFrancaise Des Jeux04:18:15  +  00:03:55=36,941 
45 ESPLuis RodriguezESPCaisse d´Epargne04:18:15  +  00:03:55=36,941 
46 AUSCadel EvansBELSilence-Lotto04:18:15  +  00:03:55=36,941 
47 ESPHaimar ZubeldiaKAZAstana Pro Team04:18:15  +  00:03:55=36,941 
48 FRASylvain ChavanelBELQuick Step04:18:15  +  00:03:55=36,941 
49 UKRVolodymir GustovCHECervelo Test Team04:18:15  +  00:03:55=36,941 
50 SVKPeter VelitsDEUTeam Milram04:18:15  +  00:03:55=36,941 
51 ESPJoan HorrachRUSTeam Katusha04:18:15  +  00:03:55=36,941 
52 ESPCarlos BarredoBELQuick Step04:18:15  +  00:03:55=36,941 
53 FINCharles WegeliusBELSilence-Lotto04:18:15  +  00:03:55=36,941 
54 FRABrice FeilluFRAAgritubel04:18:15  +  00:03:55=36,941 
55 ESPLuis León SánchezESPCaisse d´Epargne04:18:15  +  00:03:55=36,941 
56 ESPIñigo CuestaCHECervelo Test Team04:18:15  +  00:03:55=36,941 
57 PORSergio PaulinhoKAZAstana Pro Team04:18:15  +  00:03:55=36,941 
58 FRANicolas VogondyFRAAgritubel04:18:15  +  00:03:55=36,941 
59 DENChris Anker SørensenDNKTeam Saxo Bank04:24:48  +  00:10:28=36,027 
60 ESPJose Luis ArrietaFRAAg2r La Mondiale04:25:02  +  00:10:42=35,995 
61 GERGrischa NiermannNLDRabobank04:25:02  +  00:10:42=35,995 
62 ESPEgoi MartínezESPEuskaltel - Euskadi04:25:02  +  00:10:42=35,995 
63 GERSebastian LangBELSilence-Lotto04:25:02  +  00:10:42=35,995 
64 FRAGeoffroy LequatreFRAAgritubel04:25:02  +  00:10:42=35,995 
65 BELStaf ScheirlinckxBELSilence-Lotto04:25:02  +  00:10:42=35,995 
66 FRAMaxime BouetFRAAgritubel04:25:02  +  00:10:42=35,995 
67 FRASylvain CalzatiFRAAgritubel04:25:02  +  00:10:42=35,995 
68 USAGeorge HincapieUSATeam Columbia-HTC04:25:02  +  00:10:42=35,995 
69 COLLeonardo DuqueFRACofidis Le Credit En Ligne04:25:02  +  00:10:42=35,995 
70 BELGreg Van AvermaetBELSilence-Lotto04:25:02  +  00:10:42=35,995 
71 ESPGorka VerdugoESPEuskaltel - Euskadi04:25:02  +  00:10:42=35,995 
72 ITAMarzio BruseghinITALampre-N.G.C04:25:02  +  00:10:42=35,995 
73 DENNicki SørensenDNKTeam Saxo Bank04:25:02  +  00:10:42=35,995 
74 ESPDavid ArroyoESPCaisse d´Epargne04:25:02  +  00:10:42=35,995 
75 SWEGustav LarssonDNKTeam Saxo Bank04:26:51  +  00:12:31=35,750 
76 ITAAlessandro VanottiITALiquigas04:29:45  +  00:15:25=35,366 
77 ESPJosé Joaquin RojasESPCaisse d´Epargne04:31:00  +  00:16:40=35,203 
78 BELStijn VandenberghRUSTeam Katusha04:31:00  +  00:16:40=35,203 
79 NEDJoost PosthumaNLDRabobank04:31:00  +  00:16:40=35,203 
80 ESPJosé Ivan GutierrezESPCaisse d´Epargne04:31:00  +  00:16:40=35,203 
81 JPNYukiya ArashiroFRABbox Bouygues Telecom04:31:00  +  00:16:40=35,203 
82 FRADavid MoncoutiéFRACofidis Le Credit En Ligne04:31:00  +  00:16:40=35,203 
83 GERTony MartinUSATeam Columbia-HTC04:31:00  +  00:16:40=35,203 
84 GERFabian WegmannDEUTeam Milram04:31:00  +  00:16:40=35,203 
85 RUSDenis MenchovNLDRabobank04:31:00  +  00:16:40=35,203 
86 GERJohannes FröhlingerDEUTeam Milram04:31:00  +  00:16:40=35,203 
87 AUSMatthew LloydBELSilence-Lotto04:31:00  +  00:16:40=35,203 
88 MLTDavid MillarUSAGarmin-Slipstream04:34:59  +  00:20:39=34,693 
89 NZLJulian DeanUSAGarmin-Slipstream04:34:59  +  00:20:39=34,693 
90 CANRyder HesjedalUSAGarmin-Slipstream04:34:59  +  00:20:39=34,693 
91 USADanny PateUSAGarmin-Slipstream04:34:59  +  00:20:39=34,693 
92 RUSMikhail IgnatyevRUSTeam Katusha04:38:35  +  00:24:15=34,245 
93 ITAAlessandro BallanITALampre-N.G.C04:38:35  +  00:24:15=34,245 
94 ARGJuan Antonio FlechaNLDRabobank04:38:35  +  00:24:15=34,245 
95 ITAMarco BandieraITALampre-N.G.C04:38:35  +  00:24:15=34,245 
96 NEDKoen De KortNLDSkil-Shimano04:38:35  +  00:24:15=34,245 
97 BELSébastien RosselerBELQuick Step04:38:35  +  00:24:15=34,245 
98 NEDStef ClementNLDRabobank04:38:35  +  00:24:15=34,245 
99 RUSNikolai TrusovRUSTeam Katusha04:38:35  +  00:24:15=34,245 
100 ESPAmets TxurrukaESPEuskaltel - Euskadi04:38:35  +  00:24:15=34,245 
101 ESPAlan PerezESPEuskaltel - Euskadi04:38:35  +  00:24:15=34,245 
102 FRASaid HaddouFRABbox Bouygues Telecom04:38:35  +  00:24:15=34,245 
103 ITAFilippo PozzatoRUSTeam Katusha04:38:35  +  00:24:15=34,245 
104 ITAMauro SantambrogioITALampre-N.G.C04:38:35  +  00:24:15=34,245 
105 ESPJuan José OrozESPEuskaltel - Euskadi04:38:35  +  00:24:15=34,245 
106 BELJohan VansummerenBELSilence-Lotto04:38:35  +  00:24:15=34,245 
107 NZLHayden RoulstonCHECervelo Test Team04:38:35  +  00:24:15=34,245 
108 BLRAliaksandr KuchynskiITALiquigas04:38:35  +  00:24:15=34,245 
109 FRAAlexandre PichotFRABbox Bouygues Telecom04:38:35  +  00:24:15=34,245 
110 ESPJuan Manuel GarateNLDRabobank04:38:35  +  00:24:15=34,245 
111 ESPBingen FernandezFRACofidis Le Credit En Ligne04:38:35  +  00:24:15=34,245 
112 FRAJérôme PineauBELQuick Step04:38:35  +  00:24:15=34,245 
113 SUIGregory RastKAZAstana Pro Team04:38:35  +  00:24:15=34,245 
114 BELMaxime MonfortUSATeam Columbia-HTC04:38:35  +  00:24:15=34,245 
115 KAZDmitriy MuravyevKAZAstana Pro Team04:38:35  +  00:24:15=34,245 
116 FRAWilliam BonnetFRABbox Bouygues Telecom04:38:35  +  00:24:15=34,245 
117 AUSMichael RogersUSATeam Columbia-HTC04:38:35  +  00:24:15=34,245 
118 AUSStuart O'GradyDNKTeam Saxo Bank04:38:35  +  00:24:15=34,245 
119 SUIFabian CancellaraDNKTeam Saxo Bank04:38:35  +  00:24:15=34,245 
120 BELFrederik WillemsITALiquigas04:38:35  +  00:24:15=34,245 
121 FRAAnthony GeslinFRAFrancaise Des Jeux04:38:35  +  00:24:15=34,245 
122 FRABenoit VaugrenardFRAFrancaise Des Jeux04:38:35  +  00:24:15=34,245 
123 DENBrian VandborgITALiquigas04:38:35  +  00:24:15=34,245 
124 FINJussi VeikkanenFRAFrancaise Des Jeux04:38:35  +  00:24:15=34,245 
125 AUSBrett LancasterCHECervelo Test Team04:38:35  +  00:24:15=34,245 
126 GERAndreas KlierCHECervelo Test Team04:38:35  +  00:24:15=34,245 
127 FRAStéphane AugeFRACofidis Le Credit En Ligne04:38:35  +  00:24:15=34,245 
128 NORThor HushovdCHECervelo Test Team04:38:35  +  00:24:15=34,245 
129 FRAArnaud CoyotESPCaisse d´Epargne04:38:35  +  00:24:15=34,245 
130 FRAChristophe KernFRACofidis Le Credit En Ligne04:38:35  +  00:24:15=34,245 
131 FRAJonathan HivertNLDSkil-Shimano04:38:35  +  00:24:15=34,245 
132 ITADaniele BennatiITALiquigas04:39:53  +  00:25:33=34,086 
133 ITAFabio SabatiniITALiquigas04:39:53  +  00:25:33=34,086 
134 FRALloyd MondoryFRAAg2r La Mondiale04:39:53  +  00:25:33=34,086 
135 GERGerald CiolekDEUTeam Milram04:39:53  +  00:25:33=34,086 
136 FRAThierry HupondNLDSkil-Shimano04:39:53  +  00:25:33=34,086 
137 ITAMatteo TosattoBELQuick Step04:39:53  +  00:25:33=34,086 
138 AUSHeinrich HausslerCHECervelo Test Team04:39:53  +  00:25:33=34,086 
139 FRAChristophe RiblonFRAAg2r La Mondiale04:39:53  +  00:25:33=34,086 
140 FRAMickael DelageBELSilence-Lotto04:39:53  +  00:25:33=34,086 
141 USATyler FarrarUSAGarmin-Slipstream04:39:53  +  00:25:33=34,086 
142 JPNFumiyuki BeppuNLDSkil-Shimano04:39:53  +  00:25:33=34,086 
143 FRACyril LemoineNLDSkil-Shimano04:39:53  +  00:25:33=34,086 
144 GERSimon GeschkeNLDSkil-Shimano04:39:53  +  00:25:33=34,086 
145 ESPOscar FreireNLDRabobank04:39:53  +  00:25:33=34,086 
146 GERMarkus FothenDEUTeam Milram04:39:53  +  00:25:33=34,086 
147 ITADaniele RighiITALampre-N.G.C04:39:53  +  00:25:33=34,086 
148 NEDMartijn MaaskantUSAGarmin-Slipstream04:39:53  +  00:25:33=34,086 
149 GERBert GrabschUSATeam Columbia-HTC04:41:56  +  00:27:36=33,838 
150 IOMMark CavendishUSATeam Columbia-HTC04:41:56  +  00:27:36=33,838 
151 NEDSteven de JonghBELQuick Step04:41:56  +  00:27:36=33,838 
152 FRASamuel DumoulinFRACofidis Le Credit En Ligne04:41:56  +  00:27:36=33,838 
153 AUSMark RenshawUSATeam Columbia-HTC04:41:56  +  00:27:36=33,838 
154 BLRYauheni HutarovichFRAFrancaise Des Jeux04:41:56  +  00:27:36=33,838 
155 BELStijn DevolderBELQuick Step04:41:56  +  00:27:36=33,838 
156 FRACyril DesselFRAAg2r La Mondiale04:41:56  +  00:27:36=33,838 
157 NEDNiki TerpstraDEUTeam Milram04:41:56  +  00:27:36=33,838 
158 POLMarcin SapaITALampre-N.G.C04:41:56  +  00:27:36=33,838 
159 AUTBernhard EiselUSATeam Columbia-HTC04:41:56  +  00:27:36=33,838 
160 NEDAlbert TimmerNLDSkil-Shimano04:41:56  +  00:27:36=33,838 
161 NEDKenny van HummelNLDSkil-Shimano04:49:03  +  00:34:43=33,005 

Withdrawls: 2
 
Rider
Team
Reason
81  RUSVladimir EfimkinFRAAg2r La MondialeDid not finish
153  BELTom BoonenBELQuick StepDid not start

Todays birthdays.

1870  Hippolyte Pagie
1884  Henri Devroye
1886  Ernest Ricaux
1896  Andre Zonnequin
1897  Jean Kienlen
1903  Robert Brugére
1930  Fred De Bruyne
1930  Jean-Claude Grèt
1932  Vito Favero
1932  Norbert Kerckhove
1946  Ronald De Witte
1967  Johan Verstrepen
1969  Orlando Sergio Gomes